createdAt,value
2022-11-02T00:02:13.171Z,16.25
2022-11-02T00:04:42.364Z,16.25
2022-11-02T00:07:11.432Z,16.55
2022-11-02T00:09:40.505Z,16.55
2022-11-02T00:12:09.677Z,15.77
2022-11-02T00:14:38.760Z,16.73
2022-11-02T00:17:09.080Z,16.33
2022-11-02T00:19:39.652Z,18.67
2022-11-02T00:22:08.790Z,17.75
2022-11-02T00:24:38.430Z,17.95
2022-11-02T00:27:07.658Z,17.27
2022-11-02T00:29:37.161Z,19.02
2022-11-02T00:32:08.294Z,18.17
2022-11-02T00:34:37.431Z,16.60
2022-11-02T00:37:08.066Z,16.92
2022-11-02T00:39:37.138Z,17.25
2022-11-02T00:42:07.414Z,16.77
2022-11-02T00:44:36.478Z,16.85
2022-11-02T00:47:05.783Z,18.88
2022-11-02T00:49:34.870Z,16.40
2022-11-02T00:52:04.619Z,16.98
2022-11-02T00:54:35.513Z,17.48
2022-11-02T00:57:04.776Z,15.27
2022-11-02T00:59:34.174Z,14.80
2022-11-02T01:02:03.780Z,15.60
2022-11-02T01:04:32.926Z,15.73
2022-11-02T01:07:03.263Z,15.77
2022-11-02T01:09:33.246Z,16.95
2022-11-02T01:12:03.757Z,17.60
2022-11-02T01:14:32.945Z,15.88
2022-11-02T01:17:02.026Z,16.95
2022-11-02T01:19:31.091Z,17.67
2022-11-02T01:22:00.190Z,18.85
2022-11-02T01:24:29.537Z,18.08
2022-11-02T01:26:58.635Z,15.75
2022-11-02T01:29:29.205Z,16.50
2022-11-02T01:31:58.201Z,16.85
2022-11-02T01:34:27.280Z,16.45
2022-11-02T01:36:56.338Z,16.02
2022-11-02T01:39:25.487Z,16.33
2022-11-02T01:41:55.392Z,15.88
2022-11-02T01:44:32.797Z,15.88
2022-11-02T01:47:08.496Z,18.40
2022-11-02T01:49:42.359Z,17.73
2022-11-02T01:52:16.834Z,16.70
2022-11-02T01:54:51.610Z,16.08
2022-11-02T01:57:23.627Z,15.82
2022-11-02T01:59:59.530Z,16.08
2022-11-02T02:02:29.875Z,16.52
2022-11-02T02:05:06.379Z,17.38
2022-11-02T02:07:39.863Z,16.60
2022-11-02T02:10:10.406Z,17.25
2022-11-02T02:12:42.492Z,15.63
2022-11-02T02:15:14.579Z,16.83
2022-11-02T02:17:50.345Z,17.05
2022-11-02T02:20:43.086Z,15.88
2022-11-02T02:24:07.042Z,17.13
2022-11-02T02:27:04.445Z,15.85
2022-11-02T02:29:47.708Z,17.73
2022-11-02T02:32:22.228Z,17.42
2022-11-02T02:34:56.446Z,18.23
2022-11-02T02:37:32.601Z,16.27
2022-11-02T02:40:07.610Z,18.08
2022-11-02T02:42:47.819Z,18.33
2022-11-02T02:45:25.401Z,18.13
2022-11-02T02:48:03.220Z,16.13
2022-11-02T02:50:38.892Z,17.13
2022-11-02T02:53:09.605Z,15.98
2022-11-02T02:55:46.226Z,17.23
2022-11-02T02:58:21.146Z,16.35
2022-11-02T03:00:53.094Z,15.95
2022-11-02T03:03:28.302Z,20.02
2022-11-02T03:06:07.163Z,20.40
2022-11-02T03:08:41.513Z,17.38
2022-11-02T03:11:16.178Z,22.13
2022-11-02T03:14:08.770Z,23.73
2022-11-02T03:17:02.728Z,23.75
2022-11-02T03:19:44.730Z,22.27
2022-11-02T03:22:29.888Z,24.67
2022-11-02T03:25:09.314Z,21.95
2022-11-02T03:27:45.273Z,19.67
2022-11-02T03:30:20.058Z,18.43
2022-11-02T03:32:58.838Z,16.88
2022-11-02T03:35:37.102Z,17.10
2022-11-02T03:38:13.602Z,17.50
2022-11-02T03:40:47.060Z,17.17
2022-11-02T03:43:18.379Z,17.58
2022-11-02T03:45:53.764Z,18.63
2022-11-02T03:48:31.701Z,17.58
2022-11-02T03:51:10.242Z,18.55
2022-11-02T03:53:48.661Z,18.13
2022-11-02T03:56:24.574Z,18.67
2022-11-02T03:58:53.878Z,19.27
2022-11-02T04:01:24.033Z,17.92
2022-11-02T04:03:55.884Z,18.38
2022-11-02T04:06:25.765Z,18.75
2022-11-02T04:08:55.470Z,17.52
2022-11-02T04:11:41.912Z,19.17
2022-11-02T04:14:45.343Z,20.95
2022-11-02T04:17:36.245Z,19.90
2022-11-02T04:20:13.724Z,20.27
2022-11-02T04:23:00.908Z,21.85
2022-11-02T04:25:30.881Z,22.75
2022-11-02T04:28:15.089Z,20.50
2022-11-02T04:31:00.825Z,20.95
2022-11-02T04:33:33.969Z,20.00
2022-11-02T04:36:21.637Z,20.23
2022-11-02T04:38:54.585Z,24.30
2022-11-02T04:41:44.412Z,26.63
2022-11-02T04:44:45.677Z,24.83
2022-11-02T04:47:21.690Z,23.67
2022-11-02T04:49:50.834Z,23.40
2022-11-02T04:52:25.601Z,23.80
2022-11-02T04:54:55.855Z,25.60
2022-11-02T04:57:25.259Z,24.90
2022-11-02T04:59:56.068Z,23.98
2022-11-02T05:02:25.453Z,23.92
2022-11-02T05:04:54.757Z,25.42
2022-11-02T05:07:25.910Z,27.83
2022-11-02T05:09:55.057Z,25.23
2022-11-02T05:12:29.018Z,25.90
2022-11-02T05:14:58.812Z,25.98
2022-11-02T05:17:27.877Z,26.40
2022-11-02T05:19:57.115Z,27.88
2022-11-02T05:22:27.725Z,28.00
2022-11-02T05:24:56.919Z,28.20
2022-11-02T05:27:26.059Z,27.58
2022-11-02T05:29:55.168Z,32.78
2022-11-02T05:32:24.618Z,31.75
2022-11-02T05:34:54.017Z,34.30
2022-11-02T05:37:23.344Z,32.88
2022-11-02T05:39:54.034Z,32.75
2022-11-02T05:42:23.110Z,27.77
2022-11-02T05:44:52.255Z,23.77
2022-11-02T05:47:21.507Z,24.15
2022-11-02T05:49:50.581Z,22.33
2022-11-02T05:52:19.671Z,21.92
2022-11-02T05:54:48.764Z,23.08
2022-11-02T05:57:19.431Z,29.88
2022-11-02T05:59:49.544Z,29.90
2022-11-02T06:02:21.959Z,32.47
2022-11-02T06:04:53.833Z,27.13
2022-11-02T06:07:23.035Z,28.60
2022-11-02T06:09:52.159Z,27.67
2022-11-02T06:12:22.704Z,28.50
2022-11-02T06:14:51.861Z,29.38
2022-11-02T06:17:20.915Z,31.13
2022-11-02T06:19:50.006Z,32.38
2022-11-02T06:22:19.097Z,30.83
2022-11-02T06:24:48.089Z,30.52
2022-11-02T06:27:17.176Z,27.70
2022-11-02T06:29:49.603Z,24.85
2022-11-02T06:32:20.603Z,25.08
2022-11-02T06:34:49.730Z,24.60
2022-11-02T06:37:22.342Z,24.58
2022-11-02T06:39:51.333Z,23.70
2022-11-02T06:42:23.482Z,25.77
2022-11-02T06:44:53.995Z,24.95
2022-11-02T06:47:25.320Z,28.52
2022-11-02T06:49:54.401Z,29.40
2022-11-02T06:52:29.633Z,26.17
2022-11-02T06:54:59.147Z,25.33
2022-11-02T06:57:28.235Z,23.08
2022-11-02T07:00:04.186Z,24.92
2022-11-02T07:02:33.395Z,24.60
2022-11-02T07:05:03.147Z,30.55
2022-11-02T07:07:32.478Z,34.75
2022-11-02T07:10:01.679Z,30.73
2022-11-02T07:12:32.295Z,31.75
2022-11-02T07:15:03.004Z,29.08
2022-11-02T07:17:32.463Z,22.35
2022-11-02T07:20:01.704Z,21.38
2022-11-02T07:22:31.536Z,21.23
2022-11-02T07:25:00.914Z,17.33
2022-11-02T07:27:30.287Z,16.83
2022-11-02T07:29:59.965Z,15.10
2022-11-02T07:32:30.869Z,17.90
2022-11-02T07:35:00.110Z,14.45
2022-11-02T07:37:29.451Z,18.92
2022-11-02T07:39:58.549Z,20.30
2022-11-02T07:42:27.927Z,19.35
2022-11-02T07:44:59.667Z,18.50
2022-11-02T07:47:31.336Z,16.98
2022-11-02T07:50:00.866Z,15.80
2022-11-02T07:52:29.893Z,17.05
2022-11-02T07:54:59.125Z,16.95
2022-11-02T07:57:28.188Z,18.05
2022-11-02T07:59:57.636Z,17.80
2022-11-02T08:02:26.784Z,16.70
2022-11-02T08:04:57.411Z,14.63
2022-11-02T08:07:26.451Z,13.80
2022-11-02T08:09:55.660Z,14.27
2022-11-02T08:12:25.107Z,15.25
2022-11-02T08:14:54.570Z,16.17
2022-11-02T08:17:23.889Z,18.15
2022-11-02T08:19:53.083Z,17.65
2022-11-02T08:22:23.582Z,15.38
2022-11-02T08:24:52.654Z,14.80
2022-11-02T08:27:21.781Z,13.80
2022-11-02T08:29:50.845Z,14.45
2022-11-02T08:32:19.948Z,13.07
2022-11-02T08:34:49.027Z,13.38
2022-11-02T08:37:18.258Z,13.50
2022-11-02T08:39:48.962Z,11.50
2022-11-02T08:42:18.454Z,11.85
2022-11-02T08:44:47.932Z,11.82
2022-11-02T08:47:18.828Z,11.45
2022-11-02T08:49:48.217Z,11.40
2022-11-02T08:52:17.384Z,10.77
2022-11-02T08:54:46.395Z,10.38
2022-11-02T08:57:17.049Z,7.97
2022-11-02T08:59:46.115Z,8.60
2022-11-02T09:02:15.367Z,8.18
2022-11-02T09:04:44.798Z,7.00
2022-11-02T09:07:14.398Z,7.32
2022-11-02T09:09:43.548Z,7.65
2022-11-02T09:12:12.605Z,6.78
2022-11-02T09:14:43.077Z,6.95
2022-11-02T09:17:12.198Z,7.47
2022-11-02T09:19:41.269Z,6.57
2022-11-02T09:22:10.616Z,8.50
2022-11-02T09:24:39.691Z,7.25
2022-11-02T09:27:09.007Z,7.20
2022-11-02T09:29:38.180Z,8.07
2022-11-02T09:32:08.846Z,6.95
2022-11-02T09:34:37.979Z,7.00
2022-11-02T09:37:07.098Z,6.40
2022-11-02T09:39:36.167Z,6.97
2022-11-02T09:42:15.023Z,7.57
2022-11-02T09:44:51.867Z,6.97
2022-11-02T09:50:20.396Z,7.00
2022-11-02T09:52:56.586Z,7.13
2022-11-02T09:55:33.493Z,7.15
2022-11-02T09:58:11.379Z,7.00
2022-11-02T10:00:43.297Z,7.65
2022-11-02T10:03:28.754Z,6.07
2022-11-02T10:06:03.492Z,6.35
2022-11-02T10:08:43.807Z,6.78
2022-11-02T10:11:32.948Z,6.93
2022-11-02T10:14:08.652Z,6.30
2022-11-02T10:16:44.039Z,7.28
2022-11-02T10:19:19.775Z,6.07
2022-11-02T10:21:54.074Z,7.10
2022-11-02T10:24:26.871Z,5.00
2022-11-02T10:27:01.194Z,5.93
2022-11-02T10:29:46.933Z,5.18
2022-11-02T10:32:17.576Z,5.18
2022-11-02T10:34:58.604Z,4.95
2022-11-02T10:37:48.723Z,5.20
2022-11-02T10:40:39.839Z,4.93
2022-11-02T10:43:27.392Z,5.38
2022-11-02T10:46:20.693Z,5.43
2022-11-02T10:49:02.033Z,4.45
2022-11-02T10:51:33.122Z,4.93
2022-11-02T10:54:02.335Z,4.70
2022-11-02T10:56:53.816Z,4.57
2022-11-02T10:59:24.046Z,4.90
2022-11-02T11:02:11.606Z,4.88
2022-11-02T11:04:41.699Z,4.47
2022-11-02T11:07:19.229Z,5.18
2022-11-02T11:09:54.088Z,5.30
2022-11-02T11:12:30.605Z,4.68
2022-11-02T11:20:42.700Z,4.70
2022-11-02T11:23:22.382Z,6.03
2022-11-02T11:26:03.071Z,5.93
2022-11-02T11:28:41.138Z,6.78
2022-11-02T11:31:17.122Z,5.40
2022-11-02T11:33:52.001Z,5.95
2022-11-02T11:36:29.073Z,6.00
2022-11-02T11:41:32.464Z,5.57
2022-11-02T11:44:02.994Z,5.63
2022-11-02T11:46:44.410Z,5.55
2022-11-02T11:49:41.442Z,5.55
2022-11-02T11:52:25.588Z,5.10
2022-11-02T11:55:02.146Z,5.20
2022-11-02T11:57:33.635Z,5.40
2022-11-02T12:00:27.932Z,5.30
2022-11-02T12:03:06.537Z,5.07
2022-11-02T12:05:53.751Z,5.28
2022-11-02T12:08:46.499Z,5.85
2022-11-02T12:11:41.372Z,5.78
2022-11-02T12:14:24.659Z,5.40
2022-11-02T12:17:44.535Z,5.15
2022-11-02T12:20:51.910Z,5.47
2022-11-02T12:23:48.781Z,4.85
2022-11-02T12:26:33.543Z,5.45
2022-11-02T12:29:21.237Z,4.68
2022-11-02T12:32:02.695Z,5.60
2022-11-02T12:35:22.905Z,5.28
2022-11-02T12:38:09.014Z,5.93
2022-11-02T12:40:55.089Z,5.28
2022-11-02T12:43:40.684Z,5.70
2022-11-02T12:46:26.335Z,5.22
2022-11-02T12:49:17.148Z,5.53
2022-11-02T12:52:01.959Z,5.43
2022-11-02T12:54:41.713Z,5.25
2022-11-02T12:57:16.291Z,5.72
2022-11-02T12:59:48.175Z,6.82
2022-11-02T13:02:24.099Z,5.80
2022-11-02T13:04:59.384Z,5.78
2022-11-02T13:07:35.929Z,5.72
2022-11-02T13:10:16.314Z,5.90
2022-11-02T13:12:48.389Z,6.50
2022-11-02T13:15:23.879Z,6.60
2022-11-02T13:17:58.086Z,6.22
2022-11-02T13:20:33.675Z,6.50
2022-11-02T13:23:08.677Z,6.25
2022-11-02T13:25:43.250Z,6.28
2022-11-02T13:28:25.846Z,75.38
2022-11-02T13:30:57.243Z,26.30
2022-11-02T13:33:33.493Z,7.90
2022-11-02T13:36:05.836Z,6.72
2022-11-02T13:38:40.500Z,6.30
2022-11-02T13:41:52.238Z,6.20
2022-11-02T13:44:46.367Z,6.28
2022-11-02T13:47:45.391Z,5.80
2022-11-02T13:50:19.900Z,4.60
2022-11-02T13:52:55.470Z,6.53
2022-11-02T13:55:35.591Z,5.30
2022-11-02T13:58:07.705Z,4.57
2022-11-02T14:00:46.315Z,5.70
2022-11-02T14:03:23.308Z,6.57
2022-11-02T14:05:58.106Z,5.15
2022-11-02T14:08:37.235Z,6.50
2022-11-02T14:11:29.159Z,5.40
2022-11-02T14:14:31.621Z,5.90
2022-11-02T14:17:19.746Z,5.45
2022-11-02T14:20:04.519Z,6.25
2022-11-02T14:22:34.184Z,5.78
2022-11-02T14:25:17.974Z,5.78
2022-11-02T14:27:47.318Z,6.40
2022-11-02T14:30:46.006Z,6.10
2022-11-02T14:36:23.742Z,6.53
2022-11-02T14:42:22.527Z,5.70
2022-11-02T14:45:27.963Z,6.53
2022-11-02T14:48:01.422Z,6.13
2022-11-02T14:50:32.026Z,6.30
2022-11-02T14:53:09.160Z,6.63
2022-11-02T14:58:18.633Z,5.60
2022-11-02T15:00:59.323Z,6.18
2022-11-02T15:03:35.957Z,5.93
2022-11-02T15:06:09.218Z,5.80
2022-11-02T15:08:52.461Z,6.18
2022-11-02T15:11:49.709Z,6.38
2022-11-02T15:15:08.024Z,6.72
2022-11-02T15:18:23.749Z,5.65
2022-11-02T15:21:26.716Z,5.90
2022-11-02T15:24:13.893Z,5.97
2022-11-02T15:26:53.194Z,6.32
2022-11-02T15:29:37.597Z,12.18
2022-11-02T15:32:18.243Z,11.48
2022-11-02T15:34:52.811Z,8.60
2022-11-02T15:37:25.702Z,7.95
2022-11-02T15:39:58.980Z,7.95
2022-11-02T15:42:40.424Z,7.80
2022-11-02T15:48:44.239Z,7.60
2022-11-02T15:51:23.063Z,6.80
2022-11-02T15:54:13.100Z,6.47
2022-11-02T15:56:58.882Z,6.68
2022-11-02T16:00:00.796Z,6.82
2022-11-02T16:02:35.722Z,6.68
2022-11-02T16:05:06.308Z,6.88
2022-11-02T16:08:04.979Z,8.20
2022-11-02T16:10:29.723Z,7.78
2022-11-02T16:13:17.415Z,7.40
2022-11-02T16:15:49.048Z,7.38
2022-11-02T16:18:30.257Z,7.18
2022-11-02T16:21:02.265Z,6.97
2022-11-02T16:23:34.564Z,7.65
2022-11-02T16:26:07.750Z,7.45
2022-11-02T16:28:39.871Z,7.03
2022-11-02T16:31:19.194Z,7.22
2022-11-02T16:33:51.907Z,6.90
2022-11-02T16:36:23.945Z,7.45
2022-11-02T16:38:59.837Z,9.38
2022-11-02T16:41:31.289Z,11.07
2022-11-02T16:44:12.287Z,9.93
2022-11-02T16:46:51.105Z,8.95
2022-11-02T16:49:22.532Z,9.48
2022-11-02T16:51:54.011Z,8.40
2022-11-02T16:54:41.518Z,8.10
2022-11-02T16:57:19.478Z,8.02
2022-11-02T16:59:54.533Z,7.88
2022-11-02T17:02:35.546Z,8.75
2022-11-02T17:05:07.955Z,7.82
2022-11-02T17:07:41.838Z,8.50
2022-11-02T17:10:21.635Z,9.35
2022-11-02T17:12:51.193Z,8.57
2022-11-02T17:15:24.635Z,8.63
2022-11-02T17:18:25.081Z,8.75
2022-11-02T17:21:28.395Z,9.00
2022-11-02T17:23:59.733Z,8.60
2022-11-02T17:26:37.482Z,8.77
2022-11-02T17:29:33.246Z,9.00
2022-11-02T17:32:05.437Z,8.23
2022-11-02T17:34:35.793Z,8.95
2022-11-02T17:37:05.874Z,8.07
2022-11-02T17:39:35.480Z,12.40
2022-11-02T17:42:22.493Z,20.00
2022-11-02T17:44:51.586Z,11.80
2022-11-02T17:47:22.032Z,9.93
2022-11-02T17:49:51.136Z,9.73
2022-11-02T17:52:20.211Z,10.02
2022-11-02T17:54:49.355Z,9.98
2022-11-02T17:57:21.112Z,8.27
2022-11-02T17:59:51.555Z,7.45
2022-11-02T18:02:22.358Z,8.15
2022-11-02T18:04:51.616Z,8.43
2022-11-02T18:07:20.698Z,8.02
2022-11-02T18:09:49.957Z,8.85
2022-11-02T18:12:19.154Z,9.35
2022-11-02T18:14:48.267Z,9.55
2022-11-02T18:17:17.483Z,9.75
2022-11-02T18:19:48.145Z,10.48
2022-11-02T18:22:17.366Z,11.23
2022-11-02T18:24:46.612Z,11.25
2022-11-02T18:27:15.967Z,10.32
2022-11-02T18:29:45.246Z,9.63
2022-11-02T18:32:14.648Z,9.48
2022-11-02T18:34:43.653Z,11.85
2022-11-02T18:37:14.443Z,11.93
2022-11-02T18:39:43.684Z,11.45
2022-11-02T18:42:12.905Z,9.80
2022-11-02T18:44:41.986Z,10.88
2022-11-02T18:47:11.216Z,10.55
2022-11-02T18:49:40.419Z,10.77
2022-11-02T18:52:10.464Z,11.20
2022-11-02T18:54:43.245Z,12.45
2022-11-02T18:57:13.549Z,11.18
2022-11-02T18:59:44.110Z,11.90
2022-11-02T19:02:13.600Z,10.93
2022-11-02T19:04:43.046Z,10.88
2022-11-02T19:07:32.168Z,10.93
2022-11-02T19:10:04.359Z,9.57
2022-11-02T19:12:33.818Z,9.55
2022-11-02T19:15:03.832Z,9.13
2022-11-02T19:17:33.841Z,9.48
2022-11-02T19:20:03.062Z,9.48
2022-11-02T19:22:32.321Z,9.35
2022-11-02T19:25:02.886Z,8.75
2022-11-02T19:27:32.114Z,8.02
2022-11-02T19:30:02.090Z,8.90
2022-11-02T19:32:31.273Z,9.65
2022-11-02T19:35:03.534Z,9.02
2022-11-02T19:37:34.696Z,9.13
2022-11-02T19:40:07.277Z,9.63
2022-11-02T19:42:38.727Z,12.52
2022-11-02T19:45:16.591Z,13.02
2022-11-02T19:47:46.534Z,13.45
2022-11-02T19:50:17.192Z,13.95
2022-11-02T19:52:49.769Z,13.48
2022-11-02T19:55:22.832Z,13.75
2022-11-02T19:57:52.052Z,14.07
2022-11-02T20:00:21.778Z,13.23
2022-11-02T20:02:51.358Z,13.65
2022-11-02T20:05:20.498Z,13.00
2022-11-02T20:07:49.662Z,11.18
2022-11-02T20:10:20.874Z,12.68
2022-11-02T20:12:51.064Z,12.50
2022-11-02T20:15:21.780Z,9.43
2022-11-02T20:18:17.854Z,10.73
2022-11-02T20:20:42.877Z,8.98
2022-11-02T20:23:12.812Z,8.25
2022-11-02T20:25:43.534Z,6.60
2022-11-02T20:28:13.348Z,6.45
2022-11-02T20:30:45.552Z,5.43
2022-11-02T20:33:14.569Z,5.80
2022-11-02T20:35:46.681Z,5.15
2022-11-02T20:38:15.880Z,5.63
2022-11-02T20:40:46.368Z,5.75
2022-11-02T20:43:17.047Z,5.93
2022-11-02T20:45:46.795Z,4.82
2022-11-02T20:48:15.933Z,4.75
2022-11-02T20:50:46.070Z,4.78
2022-11-02T20:53:15.202Z,4.70
2022-11-02T20:55:46.436Z,4.85
2022-11-02T20:58:15.646Z,6.00
2022-11-02T21:00:45.316Z,8.05
2022-11-02T21:03:14.766Z,6.57
2022-11-02T21:05:44.806Z,8.18
2022-11-02T21:08:14.274Z,6.72
2022-11-02T21:10:43.662Z,7.70
2022-11-02T21:13:31.858Z,7.22
2022-11-02T21:16:04.043Z,9.90
2022-11-02T21:18:34.396Z,7.82
2022-11-02T21:21:08.340Z,8.77
2022-11-02T21:23:37.950Z,7.55
2022-11-02T21:26:09.489Z,8.32
2022-11-02T21:28:42.227Z,8.25
2022-11-02T21:31:15.297Z,9.15
2022-11-02T21:33:45.625Z,7.30
2022-11-02T21:36:15.818Z,8.45
2022-11-02T21:38:45.490Z,8.02
2022-11-02T21:41:20.273Z,6.32
2022-11-02T21:43:52.156Z,7.85
2022-11-02T21:46:21.785Z,9.30
2022-11-02T21:48:50.833Z,8.35
2022-11-02T21:51:22.216Z,7.53
2022-11-02T21:53:52.375Z,6.10
2022-11-02T21:56:25.589Z,6.53
2022-11-02T21:58:56.680Z,9.65
2022-11-02T22:01:53.753Z,10.60
2022-11-02T22:04:28.334Z,8.95
2022-11-02T22:06:58.361Z,7.10
2022-11-02T22:09:28.381Z,8.73
2022-11-02T22:12:15.541Z,9.90
2022-11-02T22:14:45.950Z,10.35
2022-11-02T22:17:22.196Z,9.80
2022-11-02T22:19:57.754Z,8.80
2022-11-02T22:22:27.771Z,8.48
2022-11-02T22:24:56.815Z,7.65
2022-11-02T22:27:25.879Z,9.00
2022-11-02T22:29:56.339Z,7.22
2022-11-02T22:32:25.387Z,7.50
2022-11-02T22:34:54.537Z,8.50
2022-11-02T22:37:40.841Z,7.80
2022-11-02T22:40:13.412Z,8.15
2022-11-02T22:42:43.098Z,8.25
2022-11-02T22:45:13.682Z,8.25
2022-11-02T22:47:42.785Z,8.10
2022-11-02T22:50:12.317Z,7.18
2022-11-02T22:52:41.311Z,7.55
2022-11-02T22:55:11.606Z,7.88
2022-11-02T22:57:40.745Z,7.75
2022-11-02T23:00:12.029Z,7.90
2022-11-02T23:02:42.441Z,6.13
2022-11-02T23:05:11.730Z,4.50
2022-11-02T23:07:40.741Z,5.20
2022-11-02T23:10:31.305Z,6.32
2022-11-02T23:12:59.349Z,6.85
2022-11-02T23:15:28.385Z,6.20
2022-11-02T23:17:58.839Z,9.05
2022-11-02T23:20:26.865Z,5.20
2022-11-02T23:23:17.463Z,5.45
2022-11-02T23:25:54.778Z,5.50
2022-11-02T23:28:41.828Z,6.53
2022-11-02T23:31:36.705Z,5.55
2022-11-02T23:34:07.138Z,5.20
2022-11-02T23:36:35.202Z,5.45
2022-11-02T23:39:21.706Z,5.60
2022-11-02T23:41:50.717Z,5.03
2022-11-02T23:44:19.912Z,5.75
2022-11-02T23:46:49.983Z,6.78
2022-11-02T23:49:20.477Z,6.95
2022-11-02T23:52:07.049Z,7.35
2022-11-02T23:54:53.615Z,6.82
2022-11-02T23:57:22.655Z,5.85
2022-11-02T23:59:51.727Z,6.32
